createdAt,value
2022-08-26T00:00:35.770Z,2.01
2022-08-26T00:01:39.795Z,1.98
2022-08-26T00:02:42.650Z,1.77
2022-08-26T00:03:45.535Z,2.12
2022-08-26T00:04:48.604Z,2.08
2022-08-26T00:05:51.681Z,1.96
2022-08-26T00:06:54.656Z,2.15
2022-08-26T00:07:58.865Z,1.93
2022-08-26T00:09:02.041Z,2.22
2022-08-26T00:10:05.128Z,2.23
2022-08-26T00:11:08.299Z,1.86
2022-08-26T00:12:12.364Z,1.92
2022-08-26T00:13:15.488Z,2.26
2022-08-26T00:14:19.799Z,2.34
2022-08-26T00:15:22.972Z,2.12
2022-08-26T00:16:26.888Z,1.81
2022-08-26T00:17:29.957Z,1.97
2022-08-26T00:18:33.215Z,2.20
2022-08-26T00:19:37.148Z,1.95
2022-08-26T00:20:40.536Z,2.18
2022-08-26T00:21:44.953Z,2.14
2022-08-26T00:22:48.016Z,2.08
2022-08-26T00:23:51.813Z,2.12
2022-08-26T00:24:55.095Z,2.18
2022-08-26T00:25:58.489Z,1.80
2022-08-26T00:27:01.666Z,1.98
2022-08-26T00:28:04.843Z,2.32
2022-08-26T00:29:09.554Z,2.39
2022-08-26T00:30:13.151Z,2.25
2022-08-26T00:31:16.668Z,1.93
2022-08-26T00:32:19.518Z,2.19
2022-08-26T00:33:22.599Z,1.95
2022-08-26T00:34:25.777Z,2.38
2022-08-26T00:35:28.959Z,2.53
2022-08-26T00:36:32.858Z,2.12
2022-08-26T00:37:35.838Z,2.19
2022-08-26T00:38:38.712Z,2.36
2022-08-26T00:39:42.193Z,2.01
2022-08-26T00:40:45.383Z,2.26
2022-08-26T00:41:48.558Z,2.19
2022-08-26T00:42:51.334Z,1.85
2022-08-26T00:43:54.412Z,1.70
2022-08-26T00:44:57.082Z,1.86
2022-08-26T00:46:00.452Z,2.02
2022-08-26T00:47:05.289Z,1.99
2022-08-26T00:48:08.366Z,2.03
2022-08-26T00:49:12.493Z,2.29
2022-08-26T00:50:15.662Z,2.25
2022-08-26T00:51:18.530Z,1.82
2022-08-26T00:52:21.714Z,1.89
2022-08-26T00:53:25.940Z,2.40
2022-08-26T00:54:30.129Z,2.04
2022-08-26T00:55:37.813Z,1.99
2022-08-26T00:56:37.306Z,2.10
2022-08-26T00:57:40.299Z,1.65
2022-08-26T00:58:43.157Z,1.89
2022-08-26T00:59:46.135Z,2.33
2022-08-26T01:00:48.971Z,2.07
2022-08-26T01:01:51.813Z,2.09
2022-08-26T01:02:55.076Z,1.69
2022-08-26T01:03:58.354Z,2.00
2022-08-26T01:05:01.338Z,1.74
2022-08-26T01:06:05.837Z,2.10
2022-08-26T01:07:10.454Z,1.92
2022-08-26T01:08:13.845Z,1.78
2022-08-26T01:09:17.123Z,2.06
2022-08-26T01:10:20.414Z,2.27
2022-08-26T01:11:23.701Z,1.75
2022-08-26T01:12:26.788Z,1.47
2022-08-26T01:13:29.651Z,1.65
2022-08-26T01:14:32.632Z,2.04
2022-08-26T01:15:35.504Z,1.73
2022-08-26T01:16:38.600Z,2.00
2022-08-26T01:17:41.453Z,1.85
2022-08-26T01:18:46.172Z,2.10
2022-08-26T01:19:49.358Z,1.88
2022-08-26T01:20:52.328Z,1.94
2022-08-26T01:21:56.639Z,1.96
2022-08-26T01:23:01.483Z,1.95
2022-08-26T01:24:04.653Z,2.36
2022-08-26T01:25:07.925Z,1.91
2022-08-26T01:26:19.636Z,2.28
2022-08-26T01:27:15.630Z,1.82
2022-08-26T01:28:18.697Z,1.65
2022-08-26T01:29:21.784Z,1.65
2022-08-26T01:30:24.860Z,1.86
2022-08-26T01:31:28.016Z,1.62
2022-08-26T01:32:31.117Z,1.90
2022-08-26T01:33:42.404Z,2.21
2022-08-26T01:34:39.223Z,1.94
2022-08-26T01:35:42.513Z,1.64
2022-08-26T01:36:49.305Z,1.52
2022-08-26T01:37:49.894Z,1.92
2022-08-26T01:38:52.776Z,1.89
2022-08-26T01:39:56.523Z,1.74
2022-08-26T01:41:00.464Z,1.82
2022-08-26T01:42:04.263Z,1.84
2022-08-26T01:43:09.416Z,1.38
2022-08-26T01:44:12.466Z,1.24
2022-08-26T01:45:15.654Z,1.35
2022-08-26T01:46:18.828Z,1.42
2022-08-26T01:47:22.317Z,1.59
2022-08-26T01:48:25.606Z,1.65
2022-08-26T01:49:28.790Z,1.80
2022-08-26T01:50:33.508Z,1.59
2022-08-26T01:51:36.491Z,1.75
2022-08-26T01:52:39.870Z,1.74
2022-08-26T01:53:43.053Z,1.55
2022-08-26T01:54:50.590Z,1.66
2022-08-26T01:55:51.869Z,1.66
2022-08-26T01:56:54.952Z,1.78
2022-08-26T01:57:58.233Z,1.71
2022-08-26T01:59:01.342Z,1.65
2022-08-26T02:00:04.394Z,1.77
2022-08-26T02:01:07.953Z,2.07
2022-08-26T02:02:12.499Z,2.05
2022-08-26T02:03:15.167Z,1.74
2022-08-26T02:04:18.201Z,1.94
2022-08-26T02:05:21.015Z,1.92
2022-08-26T02:06:23.893Z,2.03
2022-08-26T02:07:27.586Z,2.11
2022-08-26T02:08:30.360Z,1.82
2022-08-26T02:09:33.233Z,1.86
2022-08-26T02:10:37.543Z,2.29
2022-08-26T02:11:42.059Z,1.99
2022-08-26T02:12:44.832Z,1.89
2022-08-26T02:13:48.139Z,2.06
2022-08-26T02:14:51.341Z,2.17
2022-08-26T02:15:54.297Z,2.12
2022-08-26T02:16:57.043Z,1.80
2022-08-26T02:18:00.330Z,1.65
2022-08-26T02:19:03.004Z,2.11
2022-08-26T02:20:06.287Z,1.66
2022-08-26T02:21:10.688Z,1.98
2022-08-26T02:22:13.464Z,1.71
2022-08-26T02:23:16.237Z,1.68
2022-08-26T02:24:18.907Z,1.76
2022-08-26T02:25:21.778Z,1.96
2022-08-26T02:26:27.023Z,2.04
2022-08-26T02:27:30.330Z,1.71
2022-08-26T02:28:34.500Z,1.74
2022-08-26T02:29:37.370Z,1.88
2022-08-26T02:30:40.758Z,1.78
2022-08-26T02:31:43.615Z,1.67
2022-08-26T02:32:46.823Z,1.65
2022-08-26T02:33:51.127Z,1.42
2022-08-26T02:34:53.794Z,1.53
2022-08-26T02:35:56.668Z,1.66
2022-08-26T02:36:59.544Z,1.98
2022-08-26T02:38:02.418Z,2.18
2022-08-26T02:39:06.833Z,2.15
2022-08-26T02:40:09.889Z,1.99
2022-08-26T02:41:12.987Z,1.64
2022-08-26T02:42:16.887Z,1.66
2022-08-26T02:43:19.763Z,1.66
2022-08-26T02:44:24.171Z,1.99
2022-08-26T02:45:28.599Z,1.79
2022-08-26T02:46:32.239Z,1.22
2022-08-26T02:47:35.045Z,1.51
2022-08-26T02:48:37.919Z,1.25
2022-08-26T02:49:40.694Z,1.59
2022-08-26T02:50:45.208Z,1.63
2022-08-26T02:51:47.985Z,1.78
2022-08-26T02:52:50.650Z,1.86
2022-08-26T02:53:53.528Z,1.91
2022-08-26T02:54:56.407Z,2.08
2022-08-26T02:55:59.813Z,2.10
2022-08-26T02:57:02.865Z,1.66
2022-08-26T02:58:06.150Z,1.72
2022-08-26T02:59:09.843Z,1.77
2022-08-26T03:00:12.525Z,2.26
2022-08-26T03:01:15.325Z,2.18
2022-08-26T03:02:19.721Z,2.31
2022-08-26T03:03:23.569Z,2.36
2022-08-26T03:04:26.473Z,1.89
2022-08-26T03:05:29.343Z,2.28
2022-08-26T03:06:32.218Z,2.45
2022-08-26T03:07:35.702Z,2.20
2022-08-26T03:08:38.376Z,2.11
2022-08-26T03:09:41.051Z,2.11
2022-08-26T03:12:04.207Z,2.14
2022-08-26T03:13:07.225Z,2.33
2022-08-26T03:14:10.364Z,2.06
2022-08-26T03:15:16.006Z,2.03
2022-08-26T03:16:19.082Z,2.05
2022-08-26T03:17:21.961Z,2.12
2022-08-26T03:18:24.834Z,1.57
2022-08-26T03:19:27.405Z,1.52
2022-08-26T03:20:30.382Z,1.80
2022-08-26T03:21:33.147Z,1.93
2022-08-26T03:22:36.031Z,1.84
2022-08-26T03:23:38.899Z,1.71
2022-08-26T03:24:42.076Z,1.93
2022-08-26T03:25:46.383Z,1.94
2022-08-26T03:26:52.360Z,1.95
2022-08-26T03:27:53.573Z,1.76
2022-08-26T03:28:57.777Z,1.97
2022-08-26T03:30:01.315Z,1.89
2022-08-26T03:31:04.083Z,2.12
2022-08-26T03:32:06.709Z,1.57
2022-08-26T03:33:09.743Z,1.78
2022-08-26T03:34:12.892Z,2.05
2022-08-26T03:35:15.640Z,1.72
2022-08-26T03:36:18.517Z,1.98
2022-08-26T03:37:21.708Z,2.28
2022-08-26T03:38:24.362Z,1.71
2022-08-26T03:39:27.148Z,1.91
2022-08-26T03:40:29.955Z,1.72
2022-08-26T03:41:32.777Z,1.97
2022-08-26T03:42:35.665Z,1.70
2022-08-26T03:43:38.532Z,1.81
2022-08-26T03:44:42.944Z,2.24
2022-08-26T03:45:46.432Z,2.09
2022-08-26T03:46:49.997Z,1.74
2022-08-26T03:47:52.805Z,1.72
2022-08-26T03:48:55.871Z,1.55
2022-08-26T03:49:58.857Z,1.86
2022-08-26T03:51:01.622Z,2.08
2022-08-26T03:52:05.943Z,2.05
2022-08-26T03:53:12.903Z,1.85
2022-08-26T03:54:13.421Z,1.74
2022-08-26T03:55:16.298Z,1.76
2022-08-26T03:56:20.599Z,1.47
2022-08-26T03:57:23.479Z,1.60
2022-08-26T03:58:26.357Z,1.63
2022-08-26T03:59:29.028Z,1.54
2022-08-26T04:00:31.900Z,1.98
2022-08-26T04:01:37.374Z,2.13
2022-08-26T04:02:40.873Z,2.26
2022-08-26T04:03:44.008Z,2.06
2022-08-26T04:04:46.775Z,2.07
2022-08-26T04:05:50.364Z,1.77
2022-08-26T04:06:53.239Z,1.90
2022-08-26T04:07:56.222Z,1.82
2022-08-26T04:08:59.205Z,1.63
2022-08-26T04:10:01.974Z,1.35
2022-08-26T04:11:04.740Z,1.51
2022-08-26T04:12:07.630Z,1.57
2022-08-26T04:13:10.592Z,1.54
2022-08-26T04:14:13.698Z,1.75
2022-08-26T04:15:17.783Z,1.74
2022-08-26T04:16:20.854Z,1.69
2022-08-26T04:17:24.933Z,1.50
2022-08-26T04:18:31.447Z,1.99
2022-08-26T04:19:32.866Z,2.37
2022-08-26T04:20:35.634Z,1.98
2022-08-26T04:21:38.708Z,2.05
2022-08-26T04:22:41.479Z,2.08
2022-08-26T04:23:47.597Z,2.15
2022-08-26T04:24:48.972Z,1.79
2022-08-26T04:25:52.871Z,1.75
2022-08-26T04:26:55.540Z,1.87
2022-08-26T04:27:58.209Z,1.52
2022-08-26T04:29:01.183Z,1.35
2022-08-26T04:30:04.060Z,1.29
2022-08-26T04:31:07.091Z,1.49
2022-08-26T04:32:10.426Z,1.72
2022-08-26T04:33:13.500Z,1.68
2022-08-26T04:34:16.476Z,1.41
2022-08-26T04:35:21.822Z,1.42
2022-08-26T04:36:23.770Z,1.66
2022-08-26T04:37:26.946Z,1.80
2022-08-26T04:38:30.037Z,1.90
2022-08-26T04:39:33.010Z,2.15
2022-08-26T04:40:36.293Z,2.14
2022-08-26T04:41:39.277Z,1.99
2022-08-26T04:42:42.759Z,1.73
2022-08-26T04:43:45.944Z,1.98
2022-08-26T04:44:48.918Z,1.48
2022-08-26T04:45:51.685Z,1.80
2022-08-26T04:46:55.607Z,2.16
2022-08-26T04:47:59.077Z,2.14
2022-08-26T04:49:02.266Z,2.28
2022-08-26T04:50:05.641Z,2.72
2022-08-26T04:51:10.360Z,1.99
2022-08-26T04:52:13.338Z,2.38
2022-08-26T04:53:16.521Z,2.42
2022-08-26T04:54:20.322Z,2.36
2022-08-26T04:55:25.206Z,2.24
2022-08-26T04:56:28.325Z,2.14
2022-08-26T04:57:31.408Z,2.05
2022-08-26T04:58:34.681Z,2.04
2022-08-26T04:59:39.418Z,2.02
2022-08-26T05:00:42.279Z,2.13
2022-08-26T05:01:45.364Z,1.91
2022-08-26T05:02:49.456Z,2.19
2022-08-26T05:03:53.894Z,2.18
2022-08-26T05:04:56.946Z,2.02
2022-08-26T05:05:59.737Z,2.17
2022-08-26T05:07:03.177Z,2.19
2022-08-26T05:08:06.086Z,2.02
2022-08-26T05:09:09.059Z,2.06
2022-08-26T05:10:11.953Z,2.36
2022-08-26T05:11:14.705Z,2.33
2022-08-26T05:12:17.686Z,2.36
2022-08-26T05:13:22.098Z,2.38
2022-08-26T05:14:25.888Z,2.22
2022-08-26T05:15:29.179Z,2.48
2022-08-26T05:16:32.049Z,2.29
2022-08-26T05:17:34.921Z,2.25
2022-08-26T05:18:38.616Z,2.16
2022-08-26T05:19:42.911Z,2.28
2022-08-26T05:20:45.922Z,1.74
2022-08-26T05:21:49.805Z,1.86
2022-08-26T05:22:52.879Z,2.23
2022-08-26T05:23:56.371Z,2.06
2022-08-26T05:24:59.143Z,1.81
2022-08-26T05:26:01.813Z,1.92
2022-08-26T05:27:07.490Z,2.02
2022-08-26T05:28:10.733Z,2.18
2022-08-26T05:29:13.504Z,2.07
2022-08-26T05:30:16.281Z,2.59
2022-08-26T05:31:19.013Z,2.25
2022-08-26T05:32:22.032Z,2.39
2022-08-26T05:33:24.700Z,2.25
2022-08-26T05:34:30.292Z,2.23
2022-08-26T05:35:32.806Z,2.43
2022-08-26T05:36:36.427Z,2.18
2022-08-26T05:37:40.307Z,2.49
2022-08-26T05:38:43.990Z,2.41
2022-08-26T05:39:51.282Z,1.93
2022-08-26T05:40:52.946Z,1.69
2022-08-26T05:41:56.005Z,1.98
2022-08-26T05:42:59.286Z,1.67
2022-08-26T05:44:02.670Z,1.68
2022-08-26T05:45:05.640Z,1.77
2022-08-26T05:46:10.112Z,1.61
2022-08-26T05:47:13.243Z,1.45
2022-08-26T05:48:17.128Z,1.71
2022-08-26T05:49:26.169Z,1.77
2022-08-26T05:50:25.648Z,1.89
2022-08-26T05:51:30.417Z,1.42
2022-08-26T05:52:33.647Z,1.77
2022-08-26T05:53:36.824Z,2.01
2022-08-26T05:54:41.338Z,1.59
2022-08-26T05:55:44.827Z,1.86
2022-08-26T05:56:48.780Z,1.81
2022-08-26T05:57:52.646Z,1.88
2022-08-26T05:58:56.221Z,1.85
2022-08-26T06:00:00.958Z,1.73
2022-08-26T06:01:11.867Z,1.62
2022-08-26T06:02:16.742Z,1.63
2022-08-26T06:03:19.797Z,1.63
2022-08-26T06:04:24.719Z,1.62
2022-08-26T06:05:38.303Z,1.69
2022-08-26T06:06:43.283Z,1.47
2022-08-26T06:07:57.840Z,1.67
2022-08-26T06:09:01.125Z,1.56
2022-08-26T06:10:31.178Z,1.23
2022-08-26T06:12:32.062Z,1.46
2022-08-26T06:14:57.867Z,1.84
2022-08-26T06:16:03.269Z,1.63
2022-08-26T06:17:07.821Z,1.67
2022-08-26T06:18:14.260Z,1.65
2022-08-26T06:19:17.567Z,1.62
2022-08-26T06:20:21.270Z,1.72
2022-08-26T06:21:25.561Z,1.86
2022-08-26T06:22:29.270Z,1.79
2022-08-26T06:23:32.578Z,1.83
2022-08-26T06:24:35.626Z,1.96
2022-08-26T06:25:39.946Z,2.26
2022-08-26T06:26:42.977Z,2.32
2022-08-26T06:27:47.330Z,2.23
2022-08-26T06:28:50.412Z,2.29
2022-08-26T06:29:53.368Z,2.28
2022-08-26T06:31:01.776Z,2.07
2022-08-26T06:32:04.882Z,2.06
2022-08-26T06:33:08.134Z,1.80
2022-08-26T06:34:11.104Z,1.93
2022-08-26T06:35:14.736Z,2.12
2022-08-26T06:36:18.597Z,2.10
2022-08-26T06:37:21.486Z,1.81
2022-08-26T06:38:24.783Z,1.80
2022-08-26T06:39:28.277Z,1.80
2022-08-26T06:40:32.850Z,2.06
2022-08-26T06:41:42.781Z,1.74
2022-08-26T06:42:42.925Z,2.26
2022-08-26T06:43:46.311Z,1.94
2022-08-26T06:44:49.184Z,1.99
2022-08-26T06:45:53.112Z,2.50
2022-08-26T06:46:56.366Z,2.10
2022-08-26T06:48:05.939Z,2.08
2022-08-26T06:49:09.687Z,1.98
2022-08-26T06:50:14.325Z,2.04
2022-08-26T06:51:17.585Z,2.21
2022-08-26T06:52:24.506Z,2.36
2022-08-26T06:53:25.699Z,2.04
2022-08-26T06:54:28.993Z,2.24
2022-08-26T06:55:32.188Z,2.45
2022-08-26T06:56:38.638Z,2.35
2022-08-26T06:57:43.653Z,2.53
2022-08-26T06:58:46.942Z,2.69
2022-08-26T06:59:51.444Z,2.94
2022-08-26T07:00:54.323Z,2.72
2022-08-26T07:01:57.465Z,2.75
2022-08-26T07:03:01.147Z,2.53
2022-08-26T07:04:10.345Z,2.46
2022-08-26T07:05:23.758Z,2.48
2022-08-26T07:06:28.167Z,2.51
2022-08-26T07:07:31.349Z,2.58
2022-08-26T07:08:34.517Z,2.28
2022-08-26T07:09:37.589Z,2.75
2022-08-26T07:10:40.585Z,2.55
2022-08-26T07:11:43.744Z,2.47
2022-08-26T07:12:47.219Z,2.55
2022-08-26T07:13:50.529Z,2.29
2022-08-26T07:14:54.829Z,2.32
2022-08-26T07:16:03.194Z,2.50
2022-08-26T07:17:12.156Z,2.45
2022-08-26T07:18:12.376Z,2.43
2022-08-26T07:19:16.103Z,2.25
2022-08-26T07:20:20.880Z,2.08
2022-08-26T07:21:30.738Z,2.01
2022-08-26T07:22:34.630Z,1.96
2022-08-26T07:23:40.679Z,2.03
2022-08-26T07:24:44.781Z,2.01
2022-08-26T07:25:48.374Z,1.86
2022-08-26T07:26:52.054Z,1.79
2022-08-26T07:27:55.242Z,2.06
2022-08-26T07:29:04.925Z,1.75
2022-08-26T07:30:07.957Z,1.70
2022-08-26T07:32:31.831Z,1.80
2022-08-26T07:33:35.102Z,1.92
2022-08-26T07:34:38.392Z,2.05
2022-08-26T07:35:43.410Z,1.75
2022-08-26T07:36:46.289Z,1.99
2022-08-26T07:37:52.832Z,1.77
2022-08-26T07:38:54.308Z,1.69
2022-08-26T07:40:03.938Z,1.90
2022-08-26T07:41:08.241Z,1.64
2022-08-26T07:42:16.602Z,1.77
2022-08-26T07:43:21.869Z,1.81
2022-08-26T07:44:32.643Z,1.80
2022-08-26T07:45:35.817Z,1.90
2022-08-26T07:46:39.115Z,1.98
2022-08-26T07:47:45.760Z,1.99
2022-08-26T07:48:48.770Z,1.87
2022-08-26T07:49:52.834Z,2.14
2022-08-26T07:50:57.046Z,2.27
2022-08-26T07:52:00.640Z,2.03
2022-08-26T07:53:10.764Z,1.98
2022-08-26T07:54:14.480Z,2.09
2022-08-26T07:55:17.869Z,2.32
2022-08-26T07:56:20.936Z,2.33
2022-08-26T07:57:24.941Z,2.48
2022-08-26T07:58:28.232Z,2.23
2022-08-26T07:59:31.016Z,2.19
2022-08-26T08:00:35.102Z,2.35
2022-08-26T08:01:38.972Z,2.00
2022-08-26T08:02:42.949Z,2.16
2022-08-26T08:03:46.602Z,2.02
2022-08-26T08:04:51.180Z,2.41
2022-08-26T08:05:54.185Z,2.15
2022-08-26T08:06:58.795Z,2.32
2022-08-26T08:08:27.091Z,2.31
2022-08-26T08:09:09.149Z,2.22
2022-08-26T08:10:12.040Z,2.43
2022-08-26T08:11:16.143Z,2.37
2022-08-26T08:12:19.205Z,2.29
2022-08-26T08:13:22.302Z,2.37
2022-08-26T08:14:26.602Z,2.32
2022-08-26T08:15:31.925Z,2.32
2022-08-26T08:16:40.170Z,2.51
2022-08-26T08:17:41.467Z,2.62
2022-08-26T08:18:45.384Z,2.54
2022-08-26T08:19:49.482Z,3.00
2022-08-26T08:20:54.674Z,2.85
2022-08-26T08:21:57.899Z,2.85
2022-08-26T08:23:02.313Z,2.67
2022-08-26T08:24:07.749Z,2.86
2022-08-26T08:25:10.725Z,3.08
2022-08-26T08:26:17.412Z,3.35
2022-08-26T08:27:25.496Z,2.91
2022-08-26T08:28:34.468Z,3.27
2022-08-26T08:29:38.513Z,2.93
2022-08-26T08:30:41.886Z,3.06
2022-08-26T08:32:02.080Z,3.23
2022-08-26T08:34:12.429Z,3.46
2022-08-26T08:36:43.980Z,3.33
2022-08-26T08:37:56.692Z,3.35
2022-08-26T08:38:59.857Z,2.95
2022-08-26T08:40:03.192Z,3.38
2022-08-26T08:41:06.116Z,3.17
2022-08-26T08:42:08.994Z,3.25
2022-08-26T08:43:13.713Z,3.14
2022-08-26T08:44:21.067Z,3.41
2022-08-26T08:45:26.022Z,4.07
2022-08-26T08:46:33.996Z,4.53
2022-08-26T08:47:36.543Z,4.50
2022-08-26T08:48:42.452Z,5.38
2022-08-26T08:49:45.314Z,5.05
2022-08-26T08:50:48.101Z,4.59
2022-08-26T08:51:50.509Z,4.37
2022-08-26T08:52:56.038Z,3.30
2022-08-26T08:53:58.300Z,4.43
2022-08-26T08:55:00.665Z,4.15
2022-08-26T08:56:02.968Z,3.92
2022-08-26T08:57:05.322Z,4.03
2022-08-26T08:59:27.919Z,3.54
2022-08-26T09:00:31.393Z,2.89
2022-08-26T09:01:35.310Z,3.12
2022-08-26T09:02:37.542Z,3.38
2022-08-26T09:03:42.548Z,3.75
2022-08-26T09:04:45.067Z,3.58
2022-08-26T09:05:48.928Z,3.78
2022-08-26T09:06:51.237Z,4.01
2022-08-26T09:07:53.681Z,4.17
2022-08-26T09:08:57.342Z,3.76
2022-08-26T09:10:01.135Z,4.03
2022-08-26T09:11:04.034Z,4.78
2022-08-26T09:12:06.441Z,4.49
2022-08-26T09:13:13.686Z,4.05
2022-08-26T09:14:14.230Z,3.65
2022-08-26T09:15:16.762Z,4.29
2022-08-26T09:16:20.863Z,3.56
2022-08-26T09:17:23.348Z,4.06
2022-08-26T09:18:26.630Z,3.52
2022-08-26T09:19:31.130Z,3.49
2022-08-26T09:20:36.691Z,3.83
2022-08-26T09:21:39.385Z,3.72
2022-08-26T09:22:41.679Z,3.81
2022-08-26T09:25:07.839Z,3.16
2022-08-26T09:26:11.787Z,3.28
2022-08-26T09:27:14.074Z,3.41
2022-08-26T09:28:16.342Z,5.78
2022-08-26T09:30:23.992Z,4.46
2022-08-26T09:31:27.406Z,5.24
2022-08-26T09:32:30.049Z,4.77
2022-08-26T09:33:32.372Z,4.30
2022-08-26T09:34:34.880Z,3.97
2022-08-26T09:35:38.204Z,3.25
2022-08-26T09:36:46.298Z,2.97
2022-08-26T09:37:53.642Z,2.94
2022-08-26T09:39:01.126Z,3.09
2022-08-26T09:40:20.953Z,3.01
2022-08-26T09:41:24.143Z,3.68
2022-08-26T09:42:26.410Z,3.45
2022-08-26T09:43:46.463Z,2.75
2022-08-26T09:44:58.691Z,2.81
2022-08-26T09:46:04.886Z,2.88
2022-08-26T09:48:29.281Z,2.91
2022-08-26T09:51:02.878Z,2.70
2022-08-26T09:52:05.228Z,2.88
2022-08-26T09:53:10.007Z,3.15
2022-08-26T09:55:37.058Z,3.49
2022-08-26T09:59:31.550Z,3.57
2022-08-26T10:02:03.887Z,3.43
2022-08-26T10:04:31.941Z,3.84
2022-08-26T10:05:47.129Z,3.86
2022-08-26T10:06:49.406Z,3.88
2022-08-26T10:08:09.352Z,3.72
2022-08-26T10:09:14.634Z,4.18
2022-08-26T10:10:28.788Z,4.37
2022-08-26T10:12:54.327Z,4.24
2022-08-26T10:14:05.768Z,4.08
2022-08-26T10:15:11.801Z,4.33
2022-08-26T10:16:16.678Z,4.35
2022-08-26T10:18:45.617Z,4.06
2022-08-26T10:19:57.162Z,3.71
2022-08-26T10:20:52.166Z,3.56
2022-08-26T10:23:31.312Z,3.50
2022-08-26T10:24:34.820Z,3.39
2022-08-26T10:25:40.937Z,3.35
2022-08-26T10:26:43.685Z,2.85
2022-08-26T10:27:53.420Z,2.86
2022-08-26T10:30:15.328Z,3.04
2022-08-26T10:32:42.185Z,2.88
2022-08-26T10:33:56.706Z,3.11
2022-08-26T10:35:15.689Z,2.78
2022-08-26T10:37:43.881Z,3.02
2022-08-26T10:38:52.257Z,2.70
2022-08-26T10:41:23.602Z,3.20
2022-08-26T10:42:28.793Z,3.26
2022-08-26T10:43:34.288Z,3.27
2022-08-26T10:44:39.931Z,3.12
2022-08-26T10:45:44.190Z,3.19
2022-08-26T10:46:46.579Z,3.59
2022-08-26T10:49:12.728Z,3.08
2022-08-26T10:50:27.378Z,2.99
2022-08-26T10:51:45.628Z,3.11
2022-08-26T10:52:59.554Z,2.95
2022-08-26T10:54:09.473Z,2.82
2022-08-26T10:55:14.754Z,2.90
2022-08-26T10:56:19.079Z,3.26
2022-08-26T10:58:42.487Z,2.77
2022-08-26T10:59:49.700Z,2.52
2022-08-26T11:00:53.734Z,2.83
2022-08-26T11:01:56.082Z,2.67
2022-08-26T11:03:05.972Z,2.68
2022-08-26T11:04:13.121Z,2.37
2022-08-26T11:05:18.582Z,2.15
2022-08-26T11:06:21.790Z,2.56
2022-08-26T11:07:24.119Z,2.56
2022-08-26T11:09:47.592Z,2.35
2022-08-26T11:10:51.481Z,2.74
2022-08-26T11:11:55.817Z,2.59
2022-08-26T11:13:04.450Z,2.46
2022-08-26T11:15:37.829Z,2.24
2022-08-26T11:16:48.581Z,2.06
2022-08-26T11:18:00.505Z,2.18
2022-08-26T11:19:03.592Z,2.45
2022-08-26T11:20:13.379Z,2.32
2022-08-26T11:21:11.669Z,2.51
2022-08-26T11:24:59.152Z,2.37
2022-08-26T11:30:06.984Z,2.61
2022-08-26T11:31:10.757Z,2.88
2022-08-26T11:32:16.545Z,2.96
2022-08-26T11:34:42.448Z,3.06
2022-08-26T11:35:46.357Z,3.22
2022-08-26T11:36:58.404Z,2.94
2022-08-26T11:38:00.910Z,3.00
2022-08-26T11:39:10.323Z,3.23
2022-08-26T11:40:22.043Z,3.54
2022-08-26T11:41:26.166Z,3.48
2022-08-26T11:42:28.498Z,3.89
2022-08-26T11:43:32.701Z,3.73
2022-08-26T11:44:36.247Z,3.72
2022-08-26T11:45:38.873Z,3.86
2022-08-26T11:46:41.464Z,3.78
2022-08-26T11:47:44.018Z,5.22
2022-08-26T11:48:48.366Z,4.08
2022-08-26T11:49:58.880Z,4.11
2022-08-26T11:51:05.746Z,4.16
2022-08-26T11:52:08.331Z,3.86
2022-08-26T11:53:17.001Z,3.94
2022-08-26T11:54:30.712Z,4.27
2022-08-26T11:55:25.224Z,4.21
2022-08-26T11:56:35.028Z,3.92
2022-08-26T11:57:39.290Z,3.98
2022-08-26T11:58:41.518Z,4.16
2022-08-26T11:59:43.919Z,4.05
2022-08-26T12:00:46.279Z,4.62
2022-08-26T12:01:51.813Z,5.20
2022-08-26T12:02:58.113Z,5.53
2022-08-26T12:04:00.578Z,4.87
2022-08-26T12:05:04.786Z,4.69
2022-08-26T12:06:07.135Z,4.98
2022-08-26T12:07:09.804Z,4.70
2022-08-26T12:08:13.767Z,4.46
2022-08-26T12:09:16.204Z,4.30
2022-08-26T12:10:20.167Z,3.79
2022-08-26T12:11:24.231Z,3.74
2022-08-26T12:12:26.630Z,3.45
2022-08-26T12:13:29.067Z,3.40
2022-08-26T12:15:53.689Z,3.26
2022-08-26T12:17:00.237Z,3.44
2022-08-26T12:18:02.614Z,3.38
2022-08-26T12:19:05.309Z,3.03
2022-08-26T12:20:07.889Z,3.13
2022-08-26T12:21:10.443Z,2.91
2022-08-26T12:22:13.014Z,2.87
2022-08-26T12:23:15.856Z,3.02
2022-08-26T12:24:18.450Z,2.78
2022-08-26T12:25:22.558Z,3.12
2022-08-26T12:26:25.192Z,3.44
2022-08-26T12:27:27.707Z,3.57
2022-08-26T12:28:30.795Z,3.41
2022-08-26T12:29:33.511Z,3.46
2022-08-26T12:30:36.249Z,3.64
2022-08-26T12:31:54.656Z,3.55
2022-08-26T12:33:19.351Z,3.28
2022-08-26T12:34:17.402Z,3.39
2022-08-26T12:35:14.890Z,3.70
2022-08-26T12:36:18.922Z,3.88
2022-08-26T12:37:21.417Z,3.69
2022-08-26T12:38:24.110Z,4.15
2022-08-26T12:39:26.754Z,4.56
2022-08-26T12:40:29.484Z,3.44
2022-08-26T12:41:32.106Z,4.25
2022-08-26T12:42:34.664Z,4.74
2022-08-26T12:43:42.332Z,4.88
2022-08-26T12:44:53.400Z,4.17
2022-08-26T12:45:50.418Z,3.37
2022-08-26T12:48:13.521Z,2.97
2022-08-26T12:49:19.369Z,3.33
2022-08-26T12:50:22.098Z,3.76
2022-08-26T12:51:24.585Z,4.14
2022-08-26T12:52:27.110Z,3.93
2022-08-26T12:53:33.856Z,3.74
2022-08-26T12:56:02.779Z,4.39
2022-08-26T12:57:10.914Z,4.71
2022-08-26T12:58:13.478Z,4.72
2022-08-26T12:59:16.488Z,4.77
2022-08-26T13:00:28.432Z,4.02
2022-08-26T13:01:28.973Z,4.45
2022-08-26T13:02:38.740Z,4.38
2022-08-26T13:03:41.017Z,4.81
2022-08-26T13:04:48.653Z,4.91
2022-08-26T13:05:50.930Z,5.66
2022-08-26T13:06:59.594Z,5.53
2022-08-26T13:08:03.649Z,5.42
2022-08-26T13:09:06.007Z,5.49
2022-08-26T13:10:08.331Z,4.95
2022-08-26T13:11:10.593Z,5.91
2022-08-26T13:12:16.979Z,5.94
2022-08-26T13:13:22.494Z,5.67
2022-08-26T13:14:31.310Z,5.58
2022-08-26T13:15:45.686Z,4.70
2022-08-26T13:16:50.947Z,4.55
2022-08-26T13:17:53.619Z,3.81
2022-08-26T13:18:57.561Z,3.58
2022-08-26T13:21:21.732Z,3.29
2022-08-26T13:22:24.338Z,3.15
2022-08-26T13:23:26.933Z,2.83
2022-08-26T13:24:29.468Z,3.10
2022-08-26T13:25:32.947Z,2.62
2022-08-26T13:26:35.505Z,2.62
2022-08-26T13:27:49.807Z,2.37
2022-08-26T13:29:01.394Z,2.87
2022-08-26T13:30:07.182Z,2.87
2022-08-26T13:31:13.551Z,2.89
2022-08-26T13:32:17.090Z,2.84
2022-08-26T13:33:19.356Z,2.82
2022-08-26T13:34:22.610Z,3.48
2022-08-26T13:35:29.469Z,4.17
2022-08-26T13:36:33.462Z,4.44
2022-08-26T13:37:35.754Z,4.26
2022-08-26T13:38:48.299Z,4.41
2022-08-26T13:39:50.143Z,4.56
2022-08-26T13:40:56.483Z,4.66
2022-08-26T13:42:09.484Z,5.18
2022-08-26T13:43:12.064Z,4.50
2022-08-26T13:44:14.649Z,3.68
2022-08-26T13:45:17.446Z,3.77
2022-08-26T13:46:19.830Z,4.12
2022-08-26T13:47:22.206Z,3.44
2022-08-26T13:48:24.607Z,3.86
2022-08-26T13:49:27.893Z,4.15
2022-08-26T13:50:30.162Z,4.42
2022-08-26T13:51:32.492Z,3.96
2022-08-26T13:52:34.835Z,4.09
2022-08-26T13:53:37.353Z,4.39
2022-08-26T13:54:51.264Z,4.26
2022-08-26T13:55:55.210Z,4.83
2022-08-26T13:56:57.498Z,4.98
2022-08-26T13:57:59.911Z,4.91
2022-08-26T13:59:02.310Z,5.11
2022-08-26T14:00:04.619Z,4.68
2022-08-26T14:01:15.915Z,4.78
2022-08-26T14:02:18.253Z,5.05
2022-08-26T14:03:23.012Z,5.08
2022-08-26T14:05:46.774Z,5.39
2022-08-26T14:06:49.080Z,5.37
2022-08-26T14:07:51.377Z,5.61
2022-08-26T14:08:55.230Z,6.37
2022-08-26T14:10:00.187Z,6.36
2022-08-26T14:11:02.402Z,6.80
2022-08-26T14:12:04.623Z,7.00
2022-08-26T14:13:07.565Z,7.79
2022-08-26T14:14:14.542Z,7.62
2022-08-26T14:15:17.105Z,7.11
2022-08-26T14:16:21.019Z,7.45
2022-08-26T14:17:31.099Z,8.36
2022-08-26T14:18:36.327Z,8.59
2022-08-26T14:19:38.262Z,9.14
2022-08-26T14:20:40.674Z,9.29
2022-08-26T14:21:43.085Z,8.69
2022-08-26T14:23:03.557Z,7.02
2022-08-26T14:23:49.377Z,7.97
2022-08-26T14:24:51.657Z,6.58
2022-08-26T14:25:53.938Z,6.22
2022-08-26T14:26:57.581Z,6.49
2022-08-26T14:27:59.897Z,6.04
2022-08-26T14:29:03.389Z,6.00
2022-08-26T14:30:08.552Z,6.32
2022-08-26T14:31:10.917Z,6.82
2022-08-26T14:32:13.539Z,7.58
2022-08-26T14:33:16.071Z,7.95
2022-08-26T14:34:18.638Z,7.70
2022-08-26T14:35:21.322Z,8.60
2022-08-26T14:36:31.132Z,8.65
2022-08-26T14:37:33.338Z,9.53
2022-08-26T14:39:57.080Z,8.58
2022-08-26T14:42:21.014Z,8.74
2022-08-26T14:43:23.728Z,9.48
2022-08-26T14:44:26.196Z,9.72
2022-08-26T14:45:28.823Z,10.29
2022-08-26T14:46:31.626Z,9.32
2022-08-26T14:47:34.250Z,8.38
2022-08-26T14:48:36.881Z,7.99
2022-08-26T14:49:39.465Z,8.16
2022-08-26T14:50:42.013Z,8.34
2022-08-26T14:51:44.642Z,8.55
2022-08-26T14:52:47.142Z,8.40
2022-08-26T14:54:08.473Z,7.55
2022-08-26T14:55:15.375Z,8.17
2022-08-26T14:56:17.658Z,8.20
2022-08-26T14:57:19.969Z,7.10
2022-08-26T14:58:22.282Z,6.51
2022-08-26T14:59:24.533Z,6.37
2022-08-26T15:00:26.862Z,6.72
2022-08-26T15:01:31.097Z,5.62
2022-08-26T15:02:34.112Z,6.13
2022-08-26T15:03:36.869Z,5.24
2022-08-26T15:04:39.405Z,4.93
2022-08-26T15:05:44.888Z,4.85
2022-08-26T15:06:45.847Z,5.09
2022-08-26T15:07:48.430Z,4.97
2022-08-26T15:08:51.661Z,4.84